Muscle Shoals, Alabama
Current Conditions -  °F | °C
As of 2:53 AM on Thursday 23 Oct 2014 (Local Time) from KMSL Reporting Station
Clear Clear  
Wind Chill: 48°   Ceiling: Unl
Heat Index: 48°   Visibility: 10mi
Dew Point: 41°   Wind: 0mph
Humidity: 77%   Direction: NA
Pressure: 30.19"   Gusts: NA
Location:  34.74°N, 87.67°W
Report Text: KMSL 230753Z AUTO 00000KT 10SM CLR 09/05 A3019 RMK AO2 SLP220 T00890050 $
Loading
Personal Weather Stations






























Interactive Weather Map
Tropical Storm Tracking
New forecast layout! Learn more

10-Day Weather Forecast

Advertisements
Track Severe Weather on mobile